createdAt,value
2023-02-17T00:03:00.524Z,10.38
2023-02-17T00:08:02.495Z,10.32
2023-02-17T00:13:04.803Z,10.25
2023-02-17T00:18:07.107Z,10.12
2023-02-17T00:23:09.294Z,10.04
2023-02-17T00:28:11.623Z,10.00
2023-02-17T00:33:13.790Z,10.02
2023-02-17T00:38:17.679Z,10.05
2023-02-17T00:43:19.664Z,10.03
2023-02-17T00:48:22.662Z,9.98
2023-02-17T00:53:25.162Z,9.96
2023-02-17T00:58:27.688Z,10.04
2023-02-17T01:03:30.378Z,10.08
2023-02-17T01:08:33.063Z,10.09
2023-02-17T01:13:35.084Z,10.19
2023-02-17T01:18:37.058Z,10.18
2023-02-17T01:23:39.074Z,10.18
2023-02-17T01:28:42.950Z,10.22
2023-02-17T01:33:45.082Z,10.14
2023-02-17T01:38:47.751Z,10.19
2023-02-17T01:44:18.375Z,10.17
2023-02-17T01:49:35.742Z,10.16
2023-02-17T01:54:45.677Z,10.00
2023-02-17T01:59:48.863Z,9.98
2023-02-17T02:04:54.090Z,10.00
2023-02-17T02:09:58.755Z,10.17
2023-02-17T02:15:09.547Z,10.20
2023-02-17T02:20:48.643Z,10.16
2023-02-17T02:26:23.009Z,10.19
2023-02-17T02:32:22.195Z,10.01
2023-02-17T02:37:38.562Z,10.00
2023-02-17T02:42:42.247Z,10.02
2023-02-17T02:47:48.593Z,10.13
2023-02-17T02:53:39.694Z,10.09
2023-02-17T02:59:16.651Z,10.13
2023-02-17T03:04:36.516Z,10.15
2023-02-17T03:09:41.440Z,10.19
2023-02-17T03:14:44.688Z,10.21
2023-02-17T03:19:47.801Z,10.17
2023-02-17T03:24:52.188Z,10.10
2023-02-17T03:29:55.404Z,10.15
2023-02-17T03:34:57.900Z,10.41
2023-02-17T03:40:00.443Z,10.32
2023-02-17T03:45:02.470Z,10.36
2023-02-17T03:50:05.931Z,10.19
2023-02-17T03:55:08.382Z,10.14
2023-02-17T04:00:10.903Z,9.95
2023-02-17T04:05:15.842Z,9.81
2023-02-17T04:10:18.477Z,10.09
2023-02-17T04:15:20.725Z,10.38
2023-02-17T04:20:24.525Z,10.39
2023-02-17T04:25:26.976Z,10.38
2023-02-17T04:30:29.667Z,10.53
2023-02-17T04:35:31.931Z,10.59
2023-02-17T04:40:34.424Z,10.60
2023-02-17T04:45:38.392Z,10.57
2023-02-17T04:50:40.611Z,10.66
2023-02-17T04:55:42.846Z,10.57
2023-02-17T05:00:47.431Z,10.63
2023-02-17T05:05:50.229Z,10.73
2023-02-17T05:10:52.738Z,10.78
2023-02-17T05:15:55.059Z,10.72
2023-02-17T05:20:57.465Z,10.61
2023-02-17T05:25:59.526Z,10.62
2023-02-17T05:31:02.875Z,10.53
2023-02-17T05:36:08.587Z,10.58
2023-02-17T05:41:10.568Z,10.61
2023-02-17T05:46:13.244Z,10.63
2023-02-17T05:51:17.372Z,10.90
2023-02-17T05:56:19.356Z,10.98
2023-02-17T06:01:21.685Z,11.00
2023-02-17T06:06:24.192Z,10.95
2023-02-17T06:11:26.571Z,11.10
2023-02-17T06:16:28.916Z,11.08
2023-02-17T06:21:31.729Z,11.21
2023-02-17T06:26:33.749Z,11.30
2023-02-17T06:31:35.883Z,11.20
2023-02-17T06:36:37.970Z,11.28
2023-02-17T06:41:39.998Z,11.37
2023-02-17T06:46:42.086Z,11.05
2023-02-17T06:51:44.185Z,10.85
2023-02-17T06:56:46.323Z,10.92
2023-02-17T07:01:49.975Z,11.02
2023-02-17T07:06:52.704Z,10.97
2023-02-17T07:11:55.156Z,11.04
2023-02-17T07:16:57.530Z,11.03
2023-02-17T07:21:59.591Z,11.02
2023-02-17T07:27:01.802Z,11.06
2023-02-17T07:32:04.128Z,10.98
2023-02-17T07:37:06.198Z,11.20
2023-02-17T07:42:09.887Z,11.03
2023-02-17T07:47:12.123Z,11.09
2023-02-17T07:52:18.577Z,11.21
2023-02-17T07:57:20.663Z,11.09
2023-02-17T08:02:22.802Z,11.21
2023-02-17T08:07:25.006Z,11.14
2023-02-17T08:12:45.858Z,11.27
2023-02-17T08:17:50.974Z,11.28
2023-02-17T08:22:53.628Z,11.76
2023-02-17T08:27:55.971Z,11.68
2023-02-17T08:32:58.455Z,11.74
2023-02-17T08:38:00.511Z,11.85
2023-02-17T08:43:03.676Z,12.21
2023-02-17T08:48:05.981Z,11.97
2023-02-17T08:53:08.458Z,12.33
2023-02-17T08:58:10.491Z,12.06
2023-02-17T09:03:13.023Z,11.92
2023-02-17T09:08:15.180Z,11.80
2023-02-17T09:13:18.041Z,11.78
2023-02-17T09:18:23.842Z,11.77
2023-02-17T09:23:27.298Z,11.63
2023-02-17T09:28:29.482Z,11.82
2023-02-17T09:33:31.614Z,11.90
2023-02-17T09:38:34.397Z,12.13
2023-02-17T09:43:36.745Z,12.33
2023-02-17T09:48:41.128Z,12.39
2023-02-17T09:54:13.554Z,12.60
2023-02-17T09:59:29.896Z,12.77
2023-02-17T10:04:41.289Z,14.29
2023-02-17T10:10:22.994Z,15.33
2023-02-17T10:15:29.981Z,14.30
2023-02-17T10:20:42.258Z,13.44
2023-02-17T10:26:11.426Z,13.44
2023-02-17T10:31:17.762Z,13.46
2023-02-17T10:36:34.059Z,13.79
2023-02-17T10:41:39.259Z,14.08
2023-02-17T10:46:43.674Z,14.25
2023-02-17T10:51:46.211Z,14.18
2023-02-17T10:56:54.209Z,13.89
2023-02-17T11:02:17.709Z,14.65
2023-02-17T11:07:26.972Z,14.56
2023-02-17T11:12:42.301Z,15.05
2023-02-17T11:17:45.569Z,15.50
2023-02-17T11:23:03.182Z,15.74
2023-02-17T11:28:13.251Z,15.24
2023-02-17T11:33:22.721Z,15.30
2023-02-17T11:38:38.200Z,14.66
2023-02-17T11:43:51.271Z,14.45
2023-02-17T11:49:16.264Z,14.89
2023-02-17T11:54:42.827Z,14.56
2023-02-17T12:00:25.577Z,14.84
2023-02-17T12:05:48.533Z,14.37
2023-02-17T12:11:27.189Z,14.02
2023-02-17T12:16:45.916Z,14.10
2023-02-17T12:22:20.734Z,14.27
2023-02-17T12:27:56.702Z,14.32
2023-02-17T12:33:25.803Z,14.07
2023-02-17T12:38:34.095Z,14.18
2023-02-17T12:44:05.731Z,14.38
2023-02-17T12:49:19.061Z,14.64
2023-02-17T12:54:35.985Z,14.71
2023-02-17T12:59:53.447Z,14.75
2023-02-17T13:05:04.712Z,14.74
2023-02-17T13:10:27.564Z,14.82
2023-02-17T13:15:43.051Z,14.64
2023-02-17T13:20:54.063Z,14.50
2023-02-17T13:26:22.470Z,15.10
2023-02-17T13:31:26.986Z,15.24
2023-02-17T13:36:32.174Z,15.49
2023-02-17T13:41:48.614Z,15.68
2023-02-17T13:46:52.364Z,16.10
2023-02-17T13:52:06.828Z,15.80
2023-02-17T13:57:23.818Z,15.65
2023-02-17T14:02:35.692Z,15.30
2023-02-17T14:07:39.417Z,15.01
2023-02-17T14:12:41.607Z,14.73
2023-02-17T14:17:43.700Z,15.04
2023-02-17T14:22:53.254Z,15.00
2023-02-17T14:28:01.285Z,15.01
2023-02-17T14:33:18.511Z,14.85
2023-02-17T14:38:26.764Z,14.82
2023-02-17T14:43:29.077Z,14.55
2023-02-17T14:48:31.228Z,14.39
2023-02-17T14:53:36.685Z,14.52
2023-02-17T14:58:39.264Z,14.06
2023-02-17T15:03:41.876Z,13.89
2023-02-17T15:08:46.033Z,13.88
2023-02-17T15:13:48.707Z,13.78
2023-02-17T15:18:51.244Z,13.95
2023-02-17T15:23:55.014Z,13.70
2023-02-17T15:28:58.445Z,13.59
2023-02-17T15:34:01.997Z,13.36
2023-02-17T15:39:04.636Z,13.31
2023-02-17T15:44:12.589Z,13.31
2023-02-17T15:49:15.090Z,13.36
2023-02-17T15:54:19.503Z,13.37
2023-02-17T15:59:27.730Z,13.43
2023-02-17T16:04:30.225Z,13.45
2023-02-17T16:09:32.664Z,13.31
2023-02-17T16:14:37.865Z,13.30
2023-02-17T16:19:40.511Z,13.19
2023-02-17T16:24:43.192Z,13.17
2023-02-17T16:29:45.628Z,13.18
2023-02-17T16:34:48.539Z,13.06
2023-02-17T16:39:51.242Z,13.06
2023-02-17T16:44:53.681Z,13.08
2023-02-17T16:49:56.315Z,13.16
2023-02-17T16:54:58.829Z,13.16
2023-02-17T17:00:01.314Z,13.25
2023-02-17T17:05:03.883Z,13.19
2023-02-17T17:10:17.474Z,13.36
2023-02-17T17:15:20.730Z,13.37
2023-02-17T17:20:28.153Z,13.26
2023-02-17T17:25:32.026Z,13.36
2023-02-17T17:30:38.068Z,13.36
2023-02-17T17:35:40.697Z,13.33
2023-02-17T17:40:49.110Z,13.34
2023-02-17T17:45:52.279Z,13.37
2023-02-17T17:50:54.899Z,13.48
2023-02-17T17:55:57.777Z,13.39
2023-02-17T18:01:01.600Z,13.47
2023-02-17T18:06:04.985Z,13.26
2023-02-17T18:11:08.791Z,13.20
2023-02-17T18:16:11.333Z,13.19
2023-02-17T18:21:13.912Z,13.17
2023-02-17T18:26:17.066Z,13.20
2023-02-17T18:31:19.875Z,13.20
2023-02-17T18:36:26.538Z,13.15
2023-02-17T18:41:32.877Z,13.28
2023-02-17T18:46:37.911Z,13.46
2023-02-17T18:51:40.482Z,13.44
2023-02-17T18:56:42.955Z,13.50
2023-02-17T19:01:45.531Z,13.60
2023-02-17T19:06:48.132Z,13.48
2023-02-17T19:11:50.512Z,13.51
2023-02-17T19:16:53.197Z,13.54
2023-02-17T19:21:55.924Z,13.67
2023-02-17T19:26:58.699Z,13.67
2023-02-17T19:32:02.409Z,13.86
2023-02-17T19:37:05.287Z,13.92
2023-02-17T19:42:08.337Z,14.04
2023-02-17T19:47:10.814Z,14.11
2023-02-17T19:52:13.384Z,14.09
2023-02-17T19:57:19.259Z,14.10
2023-02-17T20:02:21.756Z,14.10
2023-02-17T20:07:24.273Z,13.87
2023-02-17T20:12:27.101Z,13.86
2023-02-17T20:17:30.047Z,13.67
2023-02-17T20:22:32.504Z,13.15
2023-02-17T20:27:35.537Z,13.00
2023-02-17T20:32:38.047Z,12.75
2023-02-17T20:37:40.545Z,12.93
2023-02-17T20:42:43.239Z,13.07
2023-02-17T20:47:45.648Z,12.94
2023-02-17T20:52:48.910Z,12.77
2023-02-17T20:57:51.590Z,12.81
2023-02-17T21:02:54.717Z,12.82
2023-02-17T21:07:58.577Z,12.86
2023-02-17T21:13:01.627Z,12.55
2023-02-17T21:18:05.725Z,12.51
2023-02-17T21:23:08.412Z,12.51
2023-02-17T21:28:11.050Z,12.55
2023-02-17T21:33:13.597Z,12.57
2023-02-17T21:38:16.915Z,12.53
2023-02-17T21:43:38.878Z,12.58
2023-02-17T21:48:42.224Z,12.61
2023-02-17T21:53:45.476Z,12.64
2023-02-17T21:58:48.906Z,12.74
2023-02-17T22:03:51.707Z,12.74
2023-02-17T22:08:54.968Z,12.81
2023-02-17T22:14:00.019Z,12.76
2023-02-17T22:19:03.032Z,12.74
2023-02-17T22:24:05.835Z,12.68
2023-02-17T22:29:09.470Z,12.81
2023-02-17T22:34:15.882Z,12.78
2023-02-17T22:39:18.297Z,12.79
2023-02-17T22:44:20.687Z,12.76
2023-02-17T22:49:23.310Z,12.78
2023-02-17T22:54:25.712Z,12.71
2023-02-17T22:59:28.237Z,12.70
2023-02-17T23:04:30.705Z,12.70
2023-02-17T23:09:33.247Z,12.66
2023-02-17T23:14:39.007Z,12.72
2023-02-17T23:19:42.410Z,12.73
2023-02-17T23:24:46.454Z,12.66
2023-02-17T23:29:48.961Z,12.65
2023-02-17T23:34:51.646Z,12.66
2023-02-17T23:39:54.166Z,12.63
2023-02-17T23:44:56.797Z,12.60
2023-02-17T23:49:59.443Z,12.61
2023-02-17T23:55:01.948Z,12.63
